createdAt,value
2022-10-19T00:00:44.712Z,62.68
2022-10-19T00:01:45.765Z,61.57
2022-10-19T00:02:44.686Z,60.73
2022-10-19T00:03:44.727Z,62.26
2022-10-19T00:04:44.676Z,63.23
2022-10-19T00:05:44.656Z,64.01
2022-10-19T00:06:44.647Z,62.91
2022-10-19T00:07:44.627Z,62.54
2022-10-19T00:08:44.628Z,63.24
2022-10-19T00:09:44.632Z,62.40
2022-10-19T00:10:44.606Z,61.67
2022-10-19T00:11:44.586Z,61.61
2022-10-19T00:12:44.676Z,61.55
2022-10-19T00:13:44.583Z,61.72
2022-10-19T00:14:44.585Z,62.62
2022-10-19T00:15:44.563Z,63.68
2022-10-19T00:16:44.550Z,64.03
2022-10-19T00:17:44.535Z,62.15
2022-10-19T00:18:44.533Z,64.92
2022-10-19T00:19:44.532Z,64.68
2022-10-19T00:20:44.504Z,61.12
2022-10-19T00:21:44.589Z,62.57
2022-10-19T00:22:44.535Z,66.45
2022-10-19T00:23:44.476Z,65.02
2022-10-19T00:24:44.476Z,63.13
2022-10-19T00:25:44.449Z,65.15
2022-10-19T00:26:44.465Z,64.74
2022-10-19T00:27:44.431Z,64.84
2022-10-19T00:28:44.461Z,64.80
2022-10-19T00:29:44.444Z,65.56
2022-10-19T00:30:44.448Z,64.68
2022-10-19T00:31:44.390Z,65.16
2022-10-19T00:32:44.403Z,63.83
2022-10-19T00:33:44.385Z,64.46
2022-10-19T00:34:44.384Z,63.56
2022-10-19T00:35:44.349Z,61.62
2022-10-19T00:36:44.350Z,63.52
2022-10-19T00:37:44.331Z,63.73
2022-10-19T00:38:44.326Z,66.37
2022-10-19T00:39:44.347Z,66.81
2022-10-19T00:40:44.299Z,64.90
2022-10-19T00:41:44.291Z,66.06
2022-10-19T00:42:44.285Z,64.56
2022-10-19T00:43:44.269Z,65.61
2022-10-19T00:44:44.270Z,66.00
2022-10-19T00:45:44.267Z,67.40
2022-10-19T00:46:44.252Z,67.12
2022-10-19T00:47:44.230Z,66.13
2022-10-19T00:48:44.249Z,67.14
2022-10-19T00:49:45.233Z,64.03
2022-10-19T00:50:44.206Z,65.91
2022-10-19T00:51:44.194Z,63.75
2022-10-19T00:52:44.192Z,65.07
2022-10-19T00:53:44.170Z,64.64
2022-10-19T00:54:44.199Z,65.59
2022-10-19T00:55:44.158Z,64.16
2022-10-19T00:56:44.154Z,64.72
2022-10-19T00:57:44.165Z,64.60
2022-10-19T00:58:44.120Z,65.83
2022-10-19T00:59:44.133Z,64.81
2022-10-19T01:00:44.126Z,64.16
2022-10-19T01:01:44.094Z,63.55
2022-10-19T01:02:44.090Z,62.55
2022-10-19T01:03:44.101Z,64.42
2022-10-19T01:04:44.088Z,64.25
2022-10-19T01:05:44.087Z,63.90
2022-10-19T01:06:44.131Z,63.93
2022-10-19T01:07:44.034Z,65.52
2022-10-19T01:08:44.045Z,65.81
2022-10-19T01:09:44.036Z,65.05
2022-10-19T01:10:44.011Z,65.69
2022-10-19T01:11:44.000Z,65.80
2022-10-19T01:12:43.990Z,64.75
2022-10-19T01:13:43.981Z,64.66
2022-10-19T01:14:43.996Z,64.53
2022-10-19T01:15:44.031Z,64.15
2022-10-19T01:16:43.956Z,64.14
2022-10-19T01:17:43.944Z,63.53
2022-10-19T01:18:43.930Z,66.35
2022-10-19T01:19:43.953Z,66.32
2022-10-19T01:20:43.946Z,64.79
2022-10-19T01:21:43.906Z,66.31
2022-10-19T01:22:43.902Z,65.30
2022-10-19T01:23:43.878Z,65.36
2022-10-19T01:24:43.960Z,63.85
2022-10-19T01:25:43.868Z,66.16
2022-10-19T01:26:43.852Z,62.06
2022-10-19T01:27:43.851Z,65.51
2022-10-19T01:28:43.878Z,63.78
2022-10-19T01:29:43.851Z,63.69
2022-10-19T01:30:43.822Z,64.25
2022-10-19T01:31:43.817Z,65.31
2022-10-19T01:32:43.794Z,63.35
2022-10-19T01:33:43.786Z,60.95
2022-10-19T01:34:43.784Z,63.10
2022-10-19T01:35:43.761Z,63.51
2022-10-19T01:36:43.757Z,61.86
2022-10-19T01:37:43.741Z,58.29
2022-10-19T01:38:43.739Z,63.36
2022-10-19T01:39:46.374Z,64.85
2022-10-19T01:40:44.721Z,59.54
2022-10-19T01:41:43.705Z,61.61
2022-10-19T01:42:43.723Z,63.04
2022-10-19T01:43:43.688Z,65.22
2022-10-19T01:44:43.692Z,62.10
2022-10-19T01:45:43.662Z,64.38
2022-10-19T01:46:43.646Z,61.62
2022-10-19T01:47:43.643Z,60.35
2022-10-19T01:48:43.634Z,60.16
2022-10-19T01:49:43.643Z,61.95
2022-10-19T01:50:43.611Z,63.05
2022-10-19T01:51:43.622Z,63.43
2022-10-19T01:52:43.594Z,64.15
2022-10-19T01:53:43.586Z,61.43
2022-10-19T01:54:43.592Z,62.14
2022-10-19T01:55:43.551Z,61.70
2022-10-19T01:56:43.558Z,61.18
2022-10-19T01:57:43.544Z,61.79
2022-10-19T01:58:43.522Z,62.65
2022-10-19T01:59:43.544Z,61.64
2022-10-19T02:00:43.588Z,62.30
2022-10-19T02:01:43.513Z,63.89
2022-10-19T02:02:43.493Z,60.75
2022-10-19T02:03:43.485Z,63.68
2022-10-19T02:04:43.503Z,64.70
2022-10-19T02:05:43.469Z,60.85
2022-10-19T02:06:43.463Z,60.10
2022-10-19T02:07:43.449Z,64.01
2022-10-19T02:08:43.508Z,62.48
2022-10-19T02:09:43.451Z,65.00
2022-10-19T02:10:43.418Z,63.92
2022-10-19T02:11:46.411Z,62.41
2022-10-19T02:12:44.397Z,64.22
2022-10-19T02:13:43.397Z,64.00
2022-10-19T02:14:43.392Z,62.60
2022-10-19T02:15:43.366Z,62.79
2022-10-19T02:16:43.356Z,64.46
2022-10-19T02:17:43.343Z,64.73
2022-10-19T02:18:43.347Z,66.66
2022-10-19T02:19:43.355Z,64.51
2022-10-19T02:20:43.325Z,62.47
2022-10-19T02:21:43.308Z,67.73
2022-10-19T02:22:43.288Z,67.55
2022-10-19T02:23:43.297Z,66.86
2022-10-19T02:24:43.295Z,66.87
2022-10-19T02:25:43.300Z,67.13
2022-10-19T02:26:43.263Z,66.32
2022-10-19T02:27:43.254Z,67.62
2022-10-19T02:28:43.243Z,67.84
2022-10-19T02:29:43.247Z,65.48
2022-10-19T02:30:43.214Z,66.33
2022-10-19T02:31:43.209Z,66.48
2022-10-19T02:32:43.197Z,70.04
2022-10-19T02:33:43.183Z,68.82
2022-10-19T02:34:43.196Z,64.91
2022-10-19T02:35:43.179Z,66.29
2022-10-19T02:36:43.185Z,67.56
2022-10-19T02:37:43.162Z,69.34
2022-10-19T02:38:43.153Z,68.24
2022-10-19T02:39:43.129Z,69.10
2022-10-19T02:40:43.114Z,68.14
2022-10-19T02:41:43.119Z,69.79
2022-10-19T02:42:43.111Z,66.81
2022-10-19T02:43:43.092Z,68.92
2022-10-19T02:44:43.092Z,67.48
2022-10-19T02:45:43.074Z,65.89
2022-10-19T02:46:43.057Z,66.01
2022-10-19T02:47:43.048Z,67.95
2022-10-19T02:48:43.037Z,66.81
2022-10-19T02:49:43.058Z,68.55
2022-10-19T02:50:43.062Z,67.10
2022-10-19T02:51:43.011Z,63.13
2022-10-19T02:52:42.995Z,67.60
2022-10-19T02:53:42.986Z,67.49
2022-10-19T02:54:43.002Z,67.70
2022-10-19T02:55:42.973Z,68.00
2022-10-19T02:56:42.978Z,68.14
2022-10-19T02:57:42.945Z,67.38
2022-10-19T02:58:42.936Z,67.82
2022-10-19T02:59:42.940Z,67.42
2022-10-19T03:00:42.955Z,68.97
2022-10-19T03:01:42.925Z,66.18
2022-10-19T03:02:42.895Z,67.60
2022-10-19T03:03:42.900Z,65.56
2022-10-19T03:04:42.940Z,68.62
2022-10-19T03:05:42.912Z,67.26
2022-10-19T03:06:42.864Z,66.96
2022-10-19T03:07:42.849Z,68.53
2022-10-19T03:08:42.838Z,67.59
2022-10-19T03:09:42.852Z,68.94
2022-10-19T03:10:42.824Z,68.19
2022-10-19T03:11:42.832Z,67.21
2022-10-19T03:12:42.827Z,68.94
2022-10-19T03:13:42.836Z,69.15
2022-10-19T03:14:42.795Z,68.98
2022-10-19T03:15:42.760Z,65.69
2022-10-19T03:16:43.756Z,66.96
2022-10-19T03:17:42.754Z,68.79
2022-10-19T03:18:42.731Z,67.28
2022-10-19T03:19:42.755Z,70.12
2022-10-19T03:20:42.734Z,68.48
2022-10-19T03:21:42.710Z,68.48
2022-10-19T03:22:42.723Z,67.82
2022-10-19T03:23:42.687Z,68.53
2022-10-19T03:24:42.706Z,66.94
2022-10-19T03:25:42.672Z,69.31
2022-10-19T03:26:42.652Z,69.21
2022-10-19T03:27:42.646Z,69.09
2022-10-19T03:28:42.706Z,68.91
2022-10-19T03:29:42.655Z,69.93
2022-10-19T03:30:42.631Z,67.73
2022-10-19T03:31:42.608Z,68.68
2022-10-19T03:32:42.601Z,67.57
2022-10-19T03:33:42.589Z,67.69
2022-10-19T03:34:42.603Z,69.88
2022-10-19T03:35:42.568Z,67.51
2022-10-19T03:36:42.549Z,68.06
2022-10-19T03:37:42.551Z,70.65
2022-10-19T03:38:42.546Z,67.71
2022-10-19T03:39:42.552Z,68.86
2022-10-19T03:40:42.517Z,69.51
2022-10-19T03:41:42.511Z,68.70
2022-10-19T03:42:42.498Z,70.40
2022-10-19T03:43:42.488Z,67.36
2022-10-19T03:44:42.578Z,67.75
2022-10-19T03:45:42.472Z,67.38
2022-10-19T03:46:42.462Z,68.46
2022-10-19T03:47:42.451Z,68.47
2022-10-19T03:48:42.442Z,67.96
2022-10-19T03:49:42.451Z,68.15
2022-10-19T03:50:42.425Z,65.52
2022-10-19T03:51:42.412Z,69.21
2022-10-19T03:52:42.402Z,68.43
2022-10-19T03:53:42.398Z,68.88
2022-10-19T03:54:42.398Z,69.71
2022-10-19T03:55:42.375Z,69.79
2022-10-19T03:56:42.375Z,70.02
2022-10-19T03:57:42.351Z,68.08
2022-10-19T03:58:42.355Z,67.93
2022-10-19T03:59:42.347Z,69.30
2022-10-19T04:00:42.362Z,67.02
2022-10-19T04:01:42.309Z,67.90
2022-10-19T04:02:42.297Z,67.04
2022-10-19T04:03:42.322Z,68.00
2022-10-19T04:04:42.341Z,68.19
2022-10-19T04:05:42.269Z,68.47
2022-10-19T04:06:42.260Z,66.65
2022-10-19T04:07:42.245Z,67.34
2022-10-19T04:08:42.264Z,68.29
2022-10-19T04:09:42.249Z,67.33
2022-10-19T04:10:42.222Z,66.93
2022-10-19T04:11:42.208Z,69.82
2022-10-19T04:12:42.209Z,69.76
2022-10-19T04:13:42.187Z,68.04
2022-10-19T04:14:56.257Z,66.96
2022-10-19T04:15:44.176Z,67.92
2022-10-19T04:16:42.157Z,69.79
2022-10-19T04:17:44.646Z,69.99
2022-10-19T04:18:42.139Z,67.05
2022-10-19T04:19:42.148Z,68.39
2022-10-19T04:20:42.121Z,69.45
2022-10-19T04:21:42.193Z,68.79
2022-10-19T04:22:42.106Z,70.34
2022-10-19T04:23:42.133Z,68.52
2022-10-19T04:24:42.106Z,67.43
2022-10-19T04:25:42.060Z,68.62
2022-10-19T04:26:42.063Z,69.78
2022-10-19T04:27:42.079Z,68.57
2022-10-19T04:28:42.103Z,69.82
2022-10-19T04:29:42.049Z,68.19
2022-10-19T04:30:42.023Z,68.23
2022-10-19T04:31:42.017Z,69.15
2022-10-19T04:32:42.003Z,69.89
2022-10-19T04:33:42.071Z,69.08
2022-10-19T04:34:42.002Z,69.24
2022-10-19T04:35:41.972Z,68.35
2022-10-19T04:36:41.956Z,69.17
2022-10-19T04:37:41.958Z,70.04
2022-10-19T04:38:41.944Z,69.80
2022-10-19T04:39:41.957Z,69.31
2022-10-19T04:40:41.920Z,68.78
2022-10-19T04:41:41.909Z,69.03
2022-10-19T04:42:41.908Z,68.16
2022-10-19T04:43:41.904Z,68.24
2022-10-19T04:44:41.900Z,69.37
2022-10-19T04:45:41.879Z,69.77
2022-10-19T04:46:41.869Z,68.02
2022-10-19T04:47:41.859Z,66.98
2022-10-19T04:48:41.853Z,68.21
2022-10-19T04:49:41.890Z,66.44
2022-10-19T04:50:41.828Z,67.77
2022-10-19T04:51:41.837Z,68.27
2022-10-19T04:52:41.811Z,68.34
2022-10-19T04:53:41.798Z,68.64
2022-10-19T04:54:41.799Z,68.57
2022-10-19T04:55:41.779Z,69.32
2022-10-19T04:56:41.764Z,69.19
2022-10-19T04:57:41.760Z,68.84
2022-10-19T04:58:41.749Z,67.37
2022-10-19T04:59:41.811Z,69.15
2022-10-19T05:00:41.793Z,70.59
2022-10-19T05:01:46.491Z,69.17
2022-10-19T05:02:43.713Z,67.61
2022-10-19T05:03:41.705Z,70.11
2022-10-19T05:04:44.438Z,70.01
2022-10-19T05:05:41.681Z,69.61
2022-10-19T05:06:41.692Z,69.09
2022-10-19T05:07:41.665Z,70.48
2022-10-19T05:08:41.655Z,68.04
2022-10-19T05:09:41.655Z,69.32
2022-10-19T05:10:44.226Z,68.71
2022-10-19T05:11:43.635Z,69.63
2022-10-19T05:12:41.626Z,69.99
2022-10-19T05:13:41.602Z,70.55
2022-10-19T05:14:42.854Z,69.97
2022-10-19T05:15:41.583Z,71.22
2022-10-19T05:16:41.572Z,69.01
2022-10-19T05:17:41.565Z,69.76
2022-10-19T05:18:41.565Z,68.28
2022-10-19T05:19:41.563Z,68.73
2022-10-19T05:20:41.547Z,69.16
2022-10-19T05:21:41.527Z,70.13
2022-10-19T05:22:41.515Z,69.62
2022-10-19T05:23:41.500Z,69.59
2022-10-19T05:24:41.519Z,71.97
2022-10-19T05:25:41.492Z,69.51
2022-10-19T05:26:41.476Z,68.26
2022-10-19T05:27:41.468Z,70.11
2022-10-19T05:28:41.555Z,68.56
2022-10-19T05:29:41.480Z,69.24
2022-10-19T05:30:45.399Z,69.63
2022-10-19T05:31:42.428Z,70.85
2022-10-19T05:32:41.408Z,69.96
2022-10-19T05:33:41.406Z,69.91
2022-10-19T05:34:41.418Z,68.71
2022-10-19T05:35:41.391Z,69.98
2022-10-19T05:36:41.377Z,69.26
2022-10-19T05:37:41.369Z,69.47
2022-10-19T05:38:41.357Z,70.21
2022-10-19T05:39:41.365Z,70.90
2022-10-19T05:40:41.337Z,70.44
2022-10-19T05:41:41.326Z,70.17
2022-10-19T05:42:41.318Z,70.36
2022-10-19T05:43:41.306Z,70.08
2022-10-19T05:44:41.308Z,69.80
2022-10-19T05:45:41.313Z,70.67
2022-10-19T05:46:41.276Z,69.46
2022-10-19T05:47:41.269Z,70.85
2022-10-19T05:48:41.257Z,69.49
2022-10-19T05:49:41.262Z,69.69
2022-10-19T05:50:41.237Z,68.85
2022-10-19T05:51:41.234Z,70.03
2022-10-19T05:52:41.214Z,70.29
2022-10-19T05:53:41.205Z,69.17
2022-10-19T05:54:41.217Z,70.80
2022-10-19T05:55:41.184Z,69.85
2022-10-19T05:56:41.208Z,70.10
2022-10-19T05:57:41.178Z,70.29
2022-10-19T05:58:41.157Z,68.94
2022-10-19T05:59:41.158Z,69.45
2022-10-19T06:00:41.144Z,69.79
2022-10-19T06:01:41.221Z,68.86
2022-10-19T06:02:41.122Z,68.70
2022-10-19T06:03:41.093Z,67.96
2022-10-19T06:04:41.107Z,69.48
2022-10-19T06:05:41.086Z,68.78
2022-10-19T06:06:41.117Z,69.87
2022-10-19T06:07:41.068Z,67.85
2022-10-19T06:08:41.059Z,68.30
2022-10-19T06:09:41.071Z,69.27
2022-10-19T06:10:41.043Z,67.47
2022-10-19T06:11:41.044Z,69.14
2022-10-19T06:12:41.015Z,68.88
2022-10-19T06:13:41.023Z,68.81
2022-10-19T06:14:41.042Z,69.07
2022-10-19T06:15:41.003Z,69.89
2022-10-19T06:16:40.975Z,67.67
2022-10-19T06:17:40.961Z,66.41
2022-10-19T06:18:40.956Z,68.18
2022-10-19T06:19:40.965Z,70.41
2022-10-19T06:20:40.939Z,67.21
2022-10-19T06:21:43.430Z,71.71
2022-10-19T06:22:40.915Z,68.76
2022-10-19T06:24:40.915Z,69.15
2022-10-19T06:25:40.879Z,69.45
2022-10-19T06:26:41.881Z,69.21
2022-10-19T06:27:40.898Z,68.81
2022-10-19T06:28:40.865Z,70.17
2022-10-19T06:29:40.872Z,69.63
2022-10-19T06:30:40.906Z,69.21
2022-10-19T06:31:40.837Z,68.95
2022-10-19T06:32:40.825Z,68.96
2022-10-19T06:33:40.915Z,67.76
2022-10-19T06:34:40.801Z,70.74
2022-10-19T06:35:40.815Z,69.34
2022-10-19T06:36:40.785Z,70.70
2022-10-19T06:37:40.763Z,69.51
2022-10-19T06:38:41.768Z,68.85
2022-10-19T06:39:40.793Z,68.71
2022-10-19T06:40:40.766Z,67.29
2022-10-19T06:41:40.732Z,69.50
2022-10-19T06:42:40.726Z,68.98
2022-10-19T06:43:40.710Z,68.19
2022-10-19T06:44:40.709Z,70.42
2022-10-19T06:45:40.713Z,68.54
2022-10-19T06:46:40.689Z,69.00
2022-10-19T06:47:40.703Z,70.29
2022-10-19T06:48:42.601Z,69.75
2022-10-19T06:49:40.657Z,70.04
2022-10-19T06:50:40.666Z,68.31
2022-10-19T06:51:40.628Z,69.32
2022-10-19T06:52:40.628Z,68.18
2022-10-19T06:53:40.629Z,68.56
2022-10-19T06:54:40.613Z,68.28
2022-10-19T06:55:40.620Z,69.65
2022-10-19T06:56:41.603Z,69.12
2022-10-19T06:57:40.593Z,68.65
2022-10-19T06:58:40.564Z,66.94
2022-10-19T06:59:40.557Z,68.41
2022-10-19T07:00:40.597Z,67.38
2022-10-19T07:01:40.535Z,70.48
2022-10-19T07:02:40.517Z,67.86
2022-10-19T07:03:41.508Z,67.29
2022-10-19T07:04:40.506Z,69.47
2022-10-19T07:05:40.512Z,68.40
2022-10-19T07:06:40.503Z,70.73
2022-10-19T07:07:40.483Z,68.25
2022-10-19T07:08:40.475Z,69.13
2022-10-19T07:09:40.459Z,70.08
2022-10-19T07:10:40.488Z,67.58
2022-10-19T07:11:45.684Z,68.18
2022-10-19T07:12:40.433Z,68.43
2022-10-19T07:13:40.418Z,68.75
2022-10-19T07:14:40.408Z,67.80
2022-10-19T07:15:40.421Z,71.15
2022-10-19T07:16:40.378Z,68.66
2022-10-19T07:17:40.381Z,68.28
2022-10-19T07:18:40.376Z,67.69
2022-10-19T07:19:40.356Z,69.47
2022-10-19T07:20:40.369Z,68.18
2022-10-19T07:21:40.341Z,68.64
2022-10-19T07:22:40.337Z,69.43
2022-10-19T07:23:40.325Z,68.76
2022-10-19T07:24:40.318Z,69.30
2022-10-19T07:25:40.325Z,69.27
2022-10-19T07:26:40.298Z,68.26
2022-10-19T07:27:40.544Z,67.98
2022-10-19T07:28:40.271Z,68.84
2022-10-19T07:29:40.263Z,69.02
2022-10-19T07:30:40.274Z,68.56
2022-10-19T07:31:40.247Z,66.81
2022-10-19T07:32:43.191Z,68.36
2022-10-19T07:33:42.226Z,68.27
2022-10-19T07:34:40.217Z,67.65
2022-10-19T07:35:40.218Z,67.87
2022-10-19T07:36:40.197Z,67.49
2022-10-19T07:37:40.182Z,67.86
2022-10-19T07:38:40.187Z,66.97
2022-10-19T07:39:40.179Z,68.81
2022-10-19T07:40:44.754Z,67.36
2022-10-19T07:41:41.149Z,68.56
2022-10-19T07:42:40.136Z,66.65
2022-10-19T07:43:40.126Z,69.24
2022-10-19T07:44:40.192Z,68.27
2022-10-19T07:45:40.132Z,68.98
2022-10-19T07:46:40.096Z,66.74
2022-10-19T07:47:40.082Z,68.12
2022-10-19T07:48:40.092Z,69.82
2022-10-19T07:49:40.066Z,68.75
2022-10-19T07:50:40.078Z,67.35
2022-10-19T07:51:40.060Z,66.82
2022-10-19T07:52:40.286Z,68.98
2022-10-19T07:53:40.030Z,65.38
2022-10-19T07:54:40.027Z,66.81
2022-10-19T07:55:40.025Z,68.46
2022-10-19T07:56:39.996Z,66.94
2022-10-19T07:57:42.495Z,69.88
2022-10-19T07:58:40.986Z,69.16
2022-10-19T07:59:39.967Z,68.39
2022-10-19T08:01:41.084Z,69.38
2022-10-19T08:02:54.897Z,68.15
2022-10-19T08:04:42.869Z,66.86
2022-10-19T08:04:58.969Z,66.70
2022-10-19T08:05:41.926Z,67.30
2022-10-19T08:06:39.928Z,68.63
2022-10-19T08:07:39.884Z,69.08
2022-10-19T08:08:39.906Z,68.29
2022-10-19T08:09:52.590Z,66.41
2022-10-19T08:10:41.878Z,66.70
2022-10-19T08:11:39.847Z,65.90
2022-10-19T08:12:39.833Z,68.38
2022-10-19T08:13:39.912Z,66.78
2022-10-19T08:14:39.813Z,67.11
2022-10-19T08:15:39.828Z,66.08
2022-10-19T08:16:39.806Z,67.28
2022-10-19T08:17:39.799Z,67.31
2022-10-19T08:18:39.787Z,66.39
2022-10-19T08:19:39.774Z,66.33
2022-10-19T08:20:39.782Z,66.50
2022-10-19T08:21:39.773Z,67.68
2022-10-19T08:22:39.757Z,67.17
2022-10-19T08:23:39.729Z,68.15
2022-10-19T08:24:39.755Z,65.73
2022-10-19T08:25:39.734Z,66.90
2022-10-19T08:26:39.706Z,68.96
2022-10-19T08:27:39.689Z,67.75
2022-10-19T08:28:39.684Z,65.11
2022-10-19T08:29:39.675Z,68.04
2022-10-19T08:30:39.695Z,68.18
2022-10-19T08:31:39.642Z,66.14
2022-10-19T08:32:39.647Z,67.06
2022-10-19T08:33:39.632Z,65.48
2022-10-19T08:34:39.627Z,68.20
2022-10-19T08:35:39.640Z,65.72
2022-10-19T08:36:39.857Z,67.09
2022-10-19T08:37:45.185Z,67.39
2022-10-19T08:38:41.593Z,65.57
2022-10-19T08:39:39.584Z,66.72
2022-10-19T08:40:39.605Z,66.95
2022-10-19T08:41:39.586Z,68.75
2022-10-19T08:42:39.533Z,66.19
2022-10-19T08:43:39.526Z,67.69
2022-10-19T08:44:39.521Z,67.97
2022-10-19T08:46:39.570Z,66.88
2022-10-19T08:47:39.486Z,66.72
2022-10-19T08:48:39.479Z,66.60
2022-10-19T08:49:39.463Z,66.48
2022-10-19T08:50:39.478Z,66.88
2022-10-19T08:51:39.443Z,66.65
2022-10-19T08:52:39.437Z,67.07
2022-10-19T08:53:39.428Z,68.39
2022-10-19T08:54:39.424Z,66.51
2022-10-19T08:55:39.440Z,69.63
2022-10-19T08:56:50.639Z,68.42
2022-10-19T08:57:41.385Z,64.82
2022-10-19T08:58:39.376Z,69.13
2022-10-19T08:59:39.367Z,68.84
2022-10-19T09:01:39.351Z,68.56
2022-10-19T09:02:39.380Z,67.03
2022-10-19T09:03:56.050Z,68.04
2022-10-19T09:04:41.330Z,67.65
2022-10-19T09:05:39.327Z,65.62
2022-10-19T09:06:39.301Z,68.01
2022-10-19T09:07:39.294Z,67.33
2022-10-19T09:08:39.298Z,67.75
2022-10-19T09:09:39.314Z,68.92
2022-10-19T09:10:39.267Z,67.69
2022-10-19T09:11:39.241Z,67.66
2022-10-19T09:12:39.233Z,69.02
2022-10-19T09:13:46.996Z,66.75
2022-10-19T09:14:41.216Z,68.37
2022-10-19T09:15:39.225Z,67.81
2022-10-19T09:16:39.198Z,68.20
2022-10-19T09:17:39.183Z,67.16
2022-10-19T09:18:39.233Z,68.27
2022-10-19T09:19:39.166Z,66.05
2022-10-19T09:20:39.170Z,66.83
2022-10-19T09:21:46.066Z,67.57
2022-10-19T09:22:41.148Z,67.28
2022-10-19T09:23:39.126Z,64.17
2022-10-19T09:24:39.118Z,66.22
2022-10-19T09:25:39.127Z,67.70
2022-10-19T09:26:39.102Z,68.84
2022-10-19T09:27:39.084Z,66.31
2022-10-19T09:28:40.180Z,68.75
2022-10-19T09:29:39.071Z,69.41
2022-10-19T09:30:39.074Z,66.79
2022-10-19T09:31:40.620Z,67.65
2022-10-19T09:32:40.030Z,68.46
2022-10-19T09:33:39.023Z,66.89
2022-10-19T09:34:39.012Z,67.00
2022-10-19T09:35:39.020Z,66.24
2022-10-19T09:36:49.728Z,68.13
2022-10-19T09:37:40.983Z,68.11
2022-10-19T09:38:38.981Z,67.26
2022-10-19T09:39:40.487Z,67.61
2022-10-19T09:40:38.974Z,68.11
2022-10-19T09:41:38.950Z,66.91
2022-10-19T09:42:39.925Z,68.55
2022-10-19T09:43:38.916Z,68.30
2022-10-19T09:44:38.902Z,68.40
2022-10-19T09:45:38.937Z,68.58
2022-10-19T09:46:39.122Z,68.13
2022-10-19T09:47:39.155Z,66.89
2022-10-19T09:48:38.882Z,68.10
2022-10-19T09:49:38.875Z,66.97
2022-10-19T09:50:38.892Z,65.64
2022-10-19T09:51:38.845Z,67.45
2022-10-19T09:52:38.871Z,64.95
2022-10-19T09:53:38.828Z,65.70
2022-10-19T09:54:38.818Z,66.29
2022-10-19T09:55:38.901Z,64.51
2022-10-19T09:56:38.803Z,69.09
2022-10-19T09:57:38.793Z,67.38
2022-10-19T09:58:38.781Z,68.24
2022-10-19T09:59:38.773Z,66.55
2022-10-19T10:00:38.792Z,67.70
2022-10-19T10:01:43.111Z,67.48
2022-10-19T10:02:38.992Z,66.22
2022-10-19T10:03:38.732Z,67.34
2022-10-19T10:04:38.725Z,68.39
2022-10-19T10:05:38.744Z,66.52
2022-10-19T10:06:38.702Z,67.31
2022-10-19T10:07:38.738Z,65.41
2022-10-19T10:08:38.749Z,68.78
2022-10-19T10:09:38.667Z,67.76
2022-10-19T10:10:38.697Z,68.95
2022-10-19T10:11:38.658Z,67.14
2022-10-19T10:12:38.643Z,65.93
2022-10-19T10:13:38.643Z,67.53
2022-10-19T10:14:38.630Z,67.07
2022-10-19T10:15:38.633Z,67.01
2022-10-19T10:16:38.598Z,66.31
2022-10-19T10:17:38.622Z,68.84
2022-10-19T10:18:38.594Z,68.42
2022-10-19T10:19:38.585Z,66.10
2022-10-19T10:20:38.607Z,67.06
2022-10-19T10:21:38.553Z,65.11
2022-10-19T10:22:38.548Z,67.31
2022-10-19T10:23:38.539Z,67.55
2022-10-19T10:24:38.523Z,66.41
2022-10-19T10:25:38.542Z,66.90
2022-10-19T10:26:38.515Z,65.83
2022-10-19T10:27:38.484Z,66.37
2022-10-19T10:28:38.481Z,68.49
2022-10-19T10:29:38.474Z,67.84
2022-10-19T10:30:38.492Z,67.42
2022-10-19T10:31:38.440Z,65.83
2022-10-19T10:32:38.444Z,66.32
2022-10-19T10:33:45.000Z,67.27
2022-10-19T10:34:59.897Z,69.01
2022-10-19T10:35:40.430Z,68.50
2022-10-19T10:36:38.405Z,67.71
2022-10-19T10:37:38.420Z,67.37
2022-10-19T10:38:38.387Z,68.86
2022-10-19T10:39:38.377Z,69.39
2022-10-19T10:40:38.377Z,66.86
2022-10-19T10:41:38.377Z,66.68
2022-10-19T10:42:38.351Z,67.51
2022-10-19T10:43:38.333Z,68.70
2022-10-19T10:44:38.329Z,67.95
2022-10-19T10:45:38.336Z,66.96
2022-10-19T10:46:38.305Z,68.77
2022-10-19T10:47:38.289Z,67.80
2022-10-19T10:48:38.289Z,69.44
2022-10-19T10:49:38.289Z,68.29
2022-10-19T10:50:38.280Z,67.47
2022-10-19T10:51:38.261Z,68.71
2022-10-19T10:52:38.379Z,67.94
2022-10-19T10:53:38.237Z,68.45
2022-10-19T10:54:38.229Z,69.80
2022-10-19T10:55:38.233Z,69.82
2022-10-19T10:56:38.209Z,68.03
2022-10-19T10:57:38.202Z,69.51
2022-10-19T10:58:38.189Z,68.84
2022-10-19T10:59:41.666Z,71.12
2022-10-19T11:00:38.197Z,69.53
2022-10-19T11:01:38.226Z,70.61
2022-10-19T11:02:38.152Z,69.01
2022-10-19T11:03:38.144Z,70.04
2022-10-19T11:04:38.137Z,71.41
2022-10-19T11:05:38.147Z,70.34
2022-10-19T11:06:40.765Z,70.55
2022-10-19T11:07:39.100Z,69.66
2022-10-19T11:08:38.137Z,69.62
2022-10-19T11:09:38.083Z,68.51
2022-10-19T11:10:38.090Z,67.76
2022-10-19T11:11:38.057Z,71.39
2022-10-19T11:12:38.048Z,72.18
2022-10-19T11:13:38.033Z,72.54
2022-10-19T11:14:39.028Z,71.55
2022-10-19T11:15:38.034Z,72.34
2022-10-19T11:16:38.019Z,71.93
2022-10-19T11:17:38.072Z,72.58
2022-10-19T11:18:37.998Z,71.55
2022-10-19T11:19:37.973Z,72.08
2022-10-19T11:20:38.005Z,70.97
2022-10-19T11:21:37.968Z,71.65
2022-10-19T11:22:38.317Z,69.86
2022-10-19T11:23:37.936Z,69.76
2022-10-19T11:24:37.935Z,70.57
2022-10-19T11:25:37.933Z,70.00
2022-10-19T11:26:37.910Z,71.26
2022-10-19T11:27:38.213Z,70.80
2022-10-19T11:28:37.889Z,70.27
2022-10-19T11:29:37.883Z,70.80
2022-10-19T11:30:41.611Z,68.78
2022-10-19T11:31:38.849Z,68.55
2022-10-19T11:32:37.913Z,69.05
2022-10-19T11:33:37.878Z,68.41
2022-10-19T11:34:37.835Z,70.14
2022-10-19T11:35:37.841Z,69.84
2022-10-19T11:36:37.809Z,69.69
2022-10-19T11:37:45.795Z,71.09
2022-10-19T11:38:39.785Z,70.62
2022-10-19T11:39:37.780Z,70.77
2022-10-19T11:40:40.245Z,68.77
2022-10-19T11:41:37.788Z,70.66
2022-10-19T11:42:37.771Z,69.54
2022-10-19T11:43:37.736Z,70.76
2022-10-19T11:44:37.735Z,70.45
2022-10-19T11:45:37.734Z,70.06
2022-10-19T11:46:38.709Z,71.03
2022-10-19T11:47:37.853Z,68.90
2022-10-19T11:48:40.346Z,68.52
2022-10-19T11:49:39.682Z,68.58
2022-10-19T11:50:37.702Z,69.52
2022-10-19T11:51:37.651Z,70.28
2022-10-19T11:52:37.759Z,70.17
2022-10-19T11:53:37.641Z,69.96
2022-10-19T11:54:37.633Z,68.60
2022-10-19T11:55:37.645Z,68.95
2022-10-19T11:56:58.035Z,70.58
2022-10-19T11:57:39.609Z,67.85
2022-10-19T11:58:37.590Z,68.74
2022-10-19T11:59:37.573Z,69.71
2022-10-19T12:00:39.919Z,69.28
2022-10-19T12:01:38.604Z,69.39
2022-10-19T12:02:37.830Z,68.08
2022-10-19T12:03:37.541Z,67.61
2022-10-19T12:04:37.531Z,69.74
2022-10-19T12:05:37.542Z,68.74
2022-10-19T12:06:37.509Z,69.16
2022-10-19T12:07:37.498Z,69.31
2022-10-19T12:08:37.585Z,68.40
2022-10-19T12:09:37.479Z,69.13
2022-10-19T12:10:37.487Z,68.67
2022-10-19T12:11:37.475Z,68.25
2022-10-19T12:12:37.726Z,67.89
2022-10-19T12:13:37.449Z,66.38
2022-10-19T12:14:37.441Z,68.03
2022-10-19T12:15:37.442Z,66.88
2022-10-19T12:16:37.424Z,69.07
2022-10-19T12:17:37.818Z,69.37
2022-10-19T12:18:37.399Z,68.62
2022-10-19T12:19:37.387Z,70.05
2022-10-19T12:20:37.399Z,69.52
2022-10-19T12:21:37.370Z,70.24
2022-10-19T12:22:37.369Z,69.01
2022-10-19T12:23:37.356Z,69.90
2022-10-19T12:24:37.338Z,67.70
2022-10-19T12:25:37.352Z,68.58
2022-10-19T12:26:37.315Z,69.10
2022-10-19T12:27:37.622Z,67.45
2022-10-19T12:28:37.299Z,70.17
2022-10-19T12:29:37.302Z,69.11
2022-10-19T12:30:37.298Z,70.55
2022-10-19T12:31:37.276Z,66.80
2022-10-19T12:32:37.264Z,69.12
2022-10-19T12:33:37.257Z,68.02
2022-10-19T12:34:37.242Z,69.66
2022-10-19T12:35:37.252Z,68.34
2022-10-19T12:36:37.227Z,69.45
2022-10-19T12:37:37.516Z,66.53
2022-10-19T12:38:39.753Z,68.21
2022-10-19T12:39:39.204Z,68.99
2022-10-19T12:40:37.202Z,69.73
2022-10-19T12:41:37.167Z,69.42
2022-10-19T12:42:37.167Z,69.33
2022-10-19T12:43:37.145Z,68.66
2022-10-19T12:44:37.142Z,68.68
2022-10-19T12:45:37.152Z,69.96
2022-10-19T12:46:37.119Z,69.32
2022-10-19T12:47:37.438Z,67.79
2022-10-19T12:48:37.100Z,69.40
2022-10-19T12:49:37.110Z,70.72
2022-10-19T12:50:38.463Z,69.67
2022-10-19T12:51:37.057Z,68.30
2022-10-19T12:52:37.313Z,68.83
2022-10-19T12:53:37.045Z,66.33
2022-10-19T12:54:37.024Z,66.97
2022-10-19T12:55:37.044Z,68.42
2022-10-19T12:56:37.011Z,68.84